Linn Grove, Indiana
Current Conditions -  °F | °C
As of 8:54 AM on Monday 24 Nov 2014 (Local Time) from KFWA Reporting Station
Light Rain Light Rain  
Wind Chill: 55°   Ceiling: 1200
Heat Index: 55°   Visibility: 8mi
Dew Point: 53°   Wind: 16mph
Humidity: 93%   Direction: 200°SSW
Pressure: 29.15"   Gusts: NA
Location:  40.64°N, 85.03°W
Report Text: KFWA 241354Z 20014KT 8SM -RA BKN012 BKN017 OVC023 13/12 A2915 RMK AO2 SLP871 P0008 T01280117
Loading
Personal Weather Stations






























Interactive Weather Map New forecast layout! Learn more

10-Day Weather Forecast

Advertisements
Track Severe Weather on mobile